Impacts TAF Board
For situational awareness. Not to be used for flight planning purposes.
IDs:

KBBD - Brady/Curtis Fld, TX, US

Issued at 1732 UTC 06 Dec 2019
Updated at 2118 UTC 06 Dec 2019
Potential Impact None Slight Moderate High
Time2055Z 06/22Z 06/23Z 07/00Z 07/01Z 07/02Z 07/03Z 07/04Z 07/05Z 07/06Z 07/07Z 07/08Z 07/09Z 07/10Z>>
Type OBS PRVL PRVL PRVL PRVL PRVL PRVL PRVL PRVL PRVL PRVL PRVL PRVL PRVL
VIS 10 >6 >6 >6 >6 >6 >6 >6 >6 >6 >6 >6 >6 >6
CIG -- -- -- -- -- -- -- -- -- -- -- -- -- --
Cover CLR SKC SKC SKC SKC SKC SKC SKC SKC SKC SKC SKC SCT SCT
FltCat VFR VFR VFR VFR VFR VFR VFR VFR VFR VFR VFR VFR VFR VFR
WX -- -- -- -- -- -- -- -- -- -- -- -- -- --
WDir 10 340 340 360 360 360 360 360 360 360 360 360 360 360
WSpd 11 15 15 7 7 7 7 7 7 7 7 7 3 3
WGst -- -- -- -- -- -- -- -- -- -- -- -- -- --
Raw TAF
KBBD 061732Z 0618/0718 34015KT P6SM SKC
  FM070000 36007KT P6SM SKC
  FM070900 36003KT P6SM SCT250


Raw METAR
KBBD 062055Z AUTO 01011KT 10SM CLR 18/02 A3025 RMK AO2
KBBD 062035Z AUTO 36010KT 10SM CLR 18/02 A3024 RMK AO2
KBBD 062015Z AUTO 35010G17KT 10SM CLR 17/02 A3025 RMK AO2
KBBD 061955Z AUTO 35013KT 10SM CLR 17/02 A3025 RMK AO2
KBBD 061935Z AUTO 35012G19KT 10SM CLR 17/02 A3026 RMK AO2
KBBD 061915Z AUTO 34012G17KT 10SM CLR 17/02 A3026 RMK AO2
KBBD 061855Z AUTO 35014KT 10SM CLR 17/02 A3027 RMK AO2
KBBD 061835Z AUTO 33012G18KT 10SM CLR 16/02 A3028 RMK AO2

METAR Board
Radar Display
Forecast Discussion
For situational awareness. Not to be used for flight planning purposes.